sensor_id;sensor_type;location;lat;lon;timestamp;temperature;humidity
19781;DHT22;10050;55.492;13.506;2024-02-21T00:00:45;6.60;99.90
19781;DHT22;10050;55.492;13.506;2024-02-21T00:03:11;6.60;99.90
19781;DHT22;10050;55.492;13.506;2024-02-21T00:05:36;6.60;99.90
19781;DHT22;10050;55.492;13.506;2024-02-21T00:08:02;6.60;99.90
19781;DHT22;10050;55.492;13.506;2024-02-21T00:10:28;6.60;99.90
19781;DHT22;10050;55.492;13.506;2024-02-21T00:12:54;6.60;99.90
19781;DHT22;10050;55.492;13.506;2024-02-21T00:15:20;6.60;99.90
19781;DHT22;10050;55.492;13.506;2024-02-21T00:17:46;6.60;99.90
19781;DHT22;10050;55.492;13.506;2024-02-21T00:20:14;6.60;99.90
19781;DHT22;10050;55.492;13.506;2024-02-21T00:22:39;6.60;99.90
19781;DHT22;10050;55.492;13.506;2024-02-21T00:25:05;6.60;99.90
19781;DHT22;10050;55.492;13.506;2024-02-21T00:27:31;6.60;99.90
19781;DHT22;10050;55.492;13.506;2024-02-21T00:29:57;6.60;99.90
19781;DHT22;10050;55.492;13.506;2024-02-21T00:32:23;6.60;99.90
19781;DHT22;10050;55.492;13.506;2024-02-21T00:34:48;6.60;99.90
19781;DHT22;10050;55.492;13.506;2024-02-21T00:37:14;6.60;99.90
19781;DHT22;10050;55.492;13.506;2024-02-21T00:39:39;6.60;99.90
19781;DHT22;10050;55.492;13.506;2024-02-21T00:42:05;6.50;99.90
19781;DHT22;10050;55.492;13.506;2024-02-21T00:44:32;6.50;99.90
19781;DHT22;10050;55.492;13.506;2024-02-21T00:46:58;6.50;99.90
19781;DHT22;10050;55.492;13.506;2024-02-21T00:49:23;6.50;99.90
19781;DHT22;10050;55.492;13.506;2024-02-21T00:51:49;6.40;99.90
19781;DHT22;10050;55.492;13.506;2024-02-21T00:54:15;6.50;99.90
19781;DHT22;10050;55.492;13.506;2024-02-21T00:56:41;6.40;99.90
19781;DHT22;10050;55.492;13.506;2024-02-21T00:59:07;6.50;99.90
19781;DHT22;10050;55.492;13.506;2024-02-21T01:01:32;6.50;99.90
19781;DHT22;10050;55.492;13.506;2024-02-21T01:03:58;6.50;99.90
19781;DHT22;10050;55.492;13.506;2024-02-21T01:06:23;6.50;99.90
19781;DHT22;10050;55.492;13.506;2024-02-21T01:08:49;6.50;99.90
19781;DHT22;10050;55.492;13.506;2024-02-21T01:11:18;6.50;99.90
19781;DHT22;10050;55.492;13.506;2024-02-21T01:13:44;6.50;99.90
19781;DHT22;10050;55.492;13.506;2024-02-21T01:16:10;6.40;99.90
19781;DHT22;10050;55.492;13.506;2024-02-21T01:18:37;6.50;99.90
19781;DHT22;10050;55.492;13.506;2024-02-21T01:21:03;6.50;99.90
19781;DHT22;10050;55.492;13.506;2024-02-21T01:23:35;6.50;99.90
19781;DHT22;10050;55.492;13.506;2024-02-21T01:26:01;6.50;99.90
19781;DHT22;10050;55.492;13.506;2024-02-21T01:28:26;6.50;99.90
19781;DHT22;10050;55.492;13.506;2024-02-21T01:30:52;6.50;99.90
19781;DHT22;10050;55.492;13.506;2024-02-21T01:33:18;6.50;99.90
19781;DHT22;10050;55.492;13.506;2024-02-21T01:35:44;6.50;99.90
19781;DHT22;10050;55.492;13.506;2024-02-21T01:38:10;6.50;99.90
19781;DHT22;10050;55.492;13.506;2024-02-21T01:40:36;6.50;99.90
19781;DHT22;10050;55.492;13.506;2024-02-21T01:43:02;6.50;99.90
19781;DHT22;10050;55.492;13.506;2024-02-21T01:45:28;6.50;99.90
19781;DHT22;10050;55.492;13.506;2024-02-21T01:47:54;6.50;99.90
19781;DHT22;10050;55.492;13.506;2024-02-21T01:50:21;6.50;99.90
19781;DHT22;10050;55.492;13.506;2024-02-21T01:52:49;6.50;99.90
19781;DHT22;10050;55.492;13.506;2024-02-21T01:55:16;6.50;99.90
19781;DHT22;10050;55.492;13.506;2024-02-21T01:57:43;6.50;99.90
19781;DHT22;10050;55.492;13.506;2024-02-21T02:00:13;6.50;99.90
19781;DHT22;10050;55.492;13.506;2024-02-21T02:02:40;6.50;99.90
19781;DHT22;10050;55.492;13.506;2024-02-21T02:05:07;6.50;99.90
19781;DHT22;10050;55.492;13.506;2024-02-21T02:07:33;6.50;99.90
19781;DHT22;10050;55.492;13.506;2024-02-21T02:09:59;6.50;99.90
19781;DHT22;10050;55.492;13.506;2024-02-21T02:12:25;6.50;99.90
19781;DHT22;10050;55.492;13.506;2024-02-21T02:15:01;6.50;99.90
19781;DHT22;10050;55.492;13.506;2024-02-21T02:17:30;6.50;99.90
19781;DHT22;10050;55.492;13.506;2024-02-21T02:19:56;6.40;99.90
19781;DHT22;10050;55.492;13.506;2024-02-21T02:22:23;6.40;99.90
19781;DHT22;10050;55.492;13.506;2024-02-21T02:24:51;6.40;99.90
19781;DHT22;10050;55.492;13.506;2024-02-21T02:27:16;6.40;99.90
19781;DHT22;10050;55.492;13.506;2024-02-21T02:29:42;6.50;99.90
19781;DHT22;10050;55.492;13.506;2024-02-21T02:32:08;6.40;99.90
19781;DHT22;10050;55.492;13.506;2024-02-21T02:34:34;6.50;99.90
19781;DHT22;10050;55.492;13.506;2024-02-21T02:36:59;6.40;99.90
19781;DHT22;10050;55.492;13.506;2024-02-21T02:39:25;6.40;99.90
19781;DHT22;10050;55.492;13.506;2024-02-21T02:41:51;6.40;99.90
19781;DHT22;10050;55.492;13.506;2024-02-21T02:44:16;6.40;99.90
19781;DHT22;10050;55.492;13.506;2024-02-21T02:46:42;6.40;99.90
19781;DHT22;10050;55.492;13.506;2024-02-21T02:49:08;6.40;99.90
19781;DHT22;10050;55.492;13.506;2024-02-21T02:51:34;6.40;99.90
19781;DHT22;10050;55.492;13.506;2024-02-21T02:54:00;6.40;99.90
19781;DHT22;10050;55.492;13.506;2024-02-21T02:56:25;6.40;99.90
19781;DHT22;10050;55.492;13.506;2024-02-21T02:58:51;6.40;99.90
19781;DHT22;10050;55.492;13.506;2024-02-21T03:01:16;6.40;99.90
19781;DHT22;10050;55.492;13.506;2024-02-21T03:03:42;6.40;99.90
19781;DHT22;10050;55.492;13.506;2024-02-21T03:06:07;6.40;99.90
19781;DHT22;10050;55.492;13.506;2024-02-21T03:08:33;6.40;99.90
19781;DHT22;10050;55.492;13.506;2024-02-21T03:10:59;6.40;99.90
19781;DHT22;10050;55.492;13.506;2024-02-21T03:13:25;6.40;99.90
19781;DHT22;10050;55.492;13.506;2024-02-21T03:15:51;6.40;99.90
19781;DHT22;10050;55.492;13.506;2024-02-21T03:18:17;6.40;99.90
19781;DHT22;10050;55.492;13.506;2024-02-21T03:20:42;6.40;99.90
19781;DHT22;10050;55.492;13.506;2024-02-21T03:23:08;6.40;99.90
19781;DHT22;10050;55.492;13.506;2024-02-21T03:25:33;6.40;99.90
19781;DHT22;10050;55.492;13.506;2024-02-21T03:27:59;6.40;99.90
19781;DHT22;10050;55.492;13.506;2024-02-21T03:30:24;6.40;99.90
19781;DHT22;10050;55.492;13.506;2024-02-21T03:32:51;6.40;99.90
19781;DHT22;10050;55.492;13.506;2024-02-21T03:35:16;6.40;99.90
19781;DHT22;10050;55.492;13.506;2024-02-21T03:37:42;6.40;99.90
19781;DHT22;10050;55.492;13.506;2024-02-21T03:40:10;6.40;99.90
19781;DHT22;10050;55.492;13.506;2024-02-21T03:42:37;6.40;99.90
19781;DHT22;10050;55.492;13.506;2024-02-21T03:45:02;6.40;99.90
19781;DHT22;10050;55.492;13.506;2024-02-21T03:47:29;6.50;99.90
19781;DHT22;10050;55.492;13.506;2024-02-21T03:49:54;6.50;99.90
19781;DHT22;10050;55.492;13.506;2024-02-21T03:52:20;6.60;99.90
19781;DHT22;10050;55.492;13.506;2024-02-21T03:54:45;6.60;99.90
19781;DHT22;10050;55.492;13.506;2024-02-21T03:57:11;6.60;99.90
19781;DHT22;10050;55.492;13.506;2024-02-21T03:59:37;6.60;99.90
19781;DHT22;10050;55.492;13.506;2024-02-21T04:02:05;6.60;99.90
19781;DHT22;10050;55.492;13.506;2024-02-21T04:04:36;6.60;99.90
19781;DHT22;10050;55.492;13.506;2024-02-21T04:07:05;6.60;99.90
19781;DHT22;10050;55.492;13.506;2024-02-21T04:09:32;6.60;99.90
19781;DHT22;10050;55.492;13.506;2024-02-21T04:11:59;6.60;99.90
19781;DHT22;10050;55.492;13.506;2024-02-21T04:14:25;6.60;99.90
19781;DHT22;10050;55.492;13.506;2024-02-21T04:16:50;6.60;99.90
19781;DHT22;10050;55.492;13.506;2024-02-21T04:19:16;6.60;99.90
19781;DHT22;10050;55.492;13.506;2024-02-21T04:21:42;6.60;99.90
19781;DHT22;10050;55.492;13.506;2024-02-21T04:24:07;6.60;99.90
19781;DHT22;10050;55.492;13.506;2024-02-21T04:26:33;6.60;99.90
19781;DHT22;10050;55.492;13.506;2024-02-21T04:28:59;6.60;99.90
19781;DHT22;10050;55.492;13.506;2024-02-21T04:31:25;6.60;99.90
19781;DHT22;10050;55.492;13.506;2024-02-21T04:33:51;6.60;99.90
19781;DHT22;10050;55.492;13.506;2024-02-21T04:36:17;6.60;99.90
19781;DHT22;10050;55.492;13.506;2024-02-21T04:38:42;6.60;99.90
19781;DHT22;10050;55.492;13.506;2024-02-21T04:41:08;6.60;99.90
19781;DHT22;10050;55.492;13.506;2024-02-21T04:43:34;6.60;99.90
19781;DHT22;10050;55.492;13.506;2024-02-21T04:45:59;6.60;99.90
19781;DHT22;10050;55.492;13.506;2024-02-21T04:48:25;6.60;99.90
19781;DHT22;10050;55.492;13.506;2024-02-21T04:50:51;6.60;99.90
19781;DHT22;10050;55.492;13.506;2024-02-21T04:53:17;6.50;99.90
19781;DHT22;10050;55.492;13.506;2024-02-21T04:55:42;6.60;99.90
19781;DHT22;10050;55.492;13.506;2024-02-21T04:58:08;6.50;99.90
19781;DHT22;10050;55.492;13.506;2024-02-21T05:00:34;6.50;99.90
19781;DHT22;10050;55.492;13.506;2024-02-21T05:03:00;6.50;99.90
19781;DHT22;10050;55.492;13.506;2024-02-21T05:05:25;6.60;99.90
19781;DHT22;10050;55.492;13.506;2024-02-21T05:07:51;6.60;99.90
19781;DHT22;10050;55.492;13.506;2024-02-21T05:10:16;6.60;99.90
19781;DHT22;10050;55.492;13.506;2024-02-21T05:12:43;6.60;99.90
19781;DHT22;10050;55.492;13.506;2024-02-21T05:15:09;6.60;99.90
19781;DHT22;10050;55.492;13.506;2024-02-21T05:17:35;6.60;99.90
19781;DHT22;10050;55.492;13.506;2024-02-21T05:20:01;6.60;99.90
19781;DHT22;10050;55.492;13.506;2024-02-21T05:22:27;6.70;99.90
19781;DHT22;10050;55.492;13.506;2024-02-21T05:24:52;6.70;99.90
19781;DHT22;10050;55.492;13.506;2024-02-21T05:27:18;6.70;99.90
19781;DHT22;10050;55.492;13.506;2024-02-21T05:29:44;6.70;99.90
19781;DHT22;10050;55.492;13.506;2024-02-21T05:32:09;6.70;99.90
19781;DHT22;10050;55.492;13.506;2024-02-21T05:34:35;6.70;99.90
19781;DHT22;10050;55.492;13.506;2024-02-21T05:37:01;6.80;99.90
19781;DHT22;10050;55.492;13.506;2024-02-21T05:39:26;6.80;99.90
19781;DHT22;10050;55.492;13.506;2024-02-21T05:41:54;6.80;99.90
19781;DHT22;10050;55.492;13.506;2024-02-21T05:44:20;6.80;99.90
19781;DHT22;10050;55.492;13.506;2024-02-21T05:46:48;6.80;99.90
19781;DHT22;10050;55.492;13.506;2024-02-21T05:49:14;6.80;99.90
19781;DHT22;10050;55.492;13.506;2024-02-21T05:51:39;6.80;99.90
19781;DHT22;10050;55.492;13.506;2024-02-21T05:54:05;6.80;99.90
19781;DHT22;10050;55.492;13.506;2024-02-21T05:56:31;6.80;99.90
19781;DHT22;10050;55.492;13.506;2024-02-21T05:58:57;6.80;99.90
19781;DHT22;10050;55.492;13.506;2024-02-21T06:01:23;6.80;99.90
19781;DHT22;10050;55.492;13.506;2024-02-21T06:03:48;6.80;99.90
19781;DHT22;10050;55.492;13.506;2024-02-21T06:06:14;6.80;99.90
19781;DHT22;10050;55.492;13.506;2024-02-21T06:08:40;6.80;99.90
19781;DHT22;10050;55.492;13.506;2024-02-21T06:11:06;6.80;99.90
19781;DHT22;10050;55.492;13.506;2024-02-21T06:13:31;6.90;99.90
19781;DHT22;10050;55.492;13.506;2024-02-21T06:15:57;6.90;99.90
19781;DHT22;10050;55.492;13.506;2024-02-21T06:18:23;6.90;99.90
19781;DHT22;10050;55.492;13.506;2024-02-21T06:20:48;6.90;99.90
19781;DHT22;10050;55.492;13.506;2024-02-21T06:23:15;6.90;99.90
19781;DHT22;10050;55.492;13.506;2024-02-21T06:25:42;6.90;99.90
19781;DHT22;10050;55.492;13.506;2024-02-21T06:28:07;6.90;99.90
19781;DHT22;10050;55.492;13.506;2024-02-21T06:30:33;6.90;99.90
19781;DHT22;10050;55.492;13.506;2024-02-21T06:32:59;6.90;99.90
19781;DHT22;10050;55.492;13.506;2024-02-21T06:35:25;6.90;99.90
19781;DHT22;10050;55.492;13.506;2024-02-21T06:37:51;6.90;99.90
19781;DHT22;10050;55.492;13.506;2024-02-21T06:40:23;6.90;99.90
19781;DHT22;10050;55.492;13.506;2024-02-21T06:42:49;6.90;99.90
19781;DHT22;10050;55.492;13.506;2024-02-21T06:45:16;6.90;99.90
19781;DHT22;10050;55.492;13.506;2024-02-21T06:47:42;6.90;99.90
19781;DHT22;10050;55.492;13.506;2024-02-21T06:50:08;6.90;99.90
19781;DHT22;10050;55.492;13.506;2024-02-21T06:52:34;6.90;99.90
19781;DHT22;10050;55.492;13.506;2024-02-21T06:55:00;6.90;99.90
19781;DHT22;10050;55.492;13.506;2024-02-21T06:57:25;7.00;99.90
19781;DHT22;10050;55.492;13.506;2024-02-21T06:59:51;6.90;99.90
19781;DHT22;10050;55.492;13.506;2024-02-21T07:02:16;7.00;99.90
19781;DHT22;10050;55.492;13.506;2024-02-21T07:04:42;7.00;99.90
19781;DHT22;10050;55.492;13.506;2024-02-21T07:07:09;7.00;99.90
19781;DHT22;10050;55.492;13.506;2024-02-21T07:09:34;7.00;99.90
19781;DHT22;10050;55.492;13.506;2024-02-21T07:12:00;7.00;99.90
19781;DHT22;10050;55.492;13.506;2024-02-21T07:14:28;6.90;99.90
19781;DHT22;10050;55.492;13.506;2024-02-21T07:16:54;6.90;99.90
19781;DHT22;10050;55.492;13.506;2024-02-21T07:19:20;6.90;99.90
19781;DHT22;10050;55.492;13.506;2024-02-21T07:21:45;6.90;99.90
19781;DHT22;10050;55.492;13.506;2024-02-21T07:24:11;6.90;99.90
19781;DHT22;10050;55.492;13.506;2024-02-21T07:26:40;6.90;99.90
19781;DHT22;10050;55.492;13.506;2024-02-21T07:29:06;6.90;99.90
19781;DHT22;10050;55.492;13.506;2024-02-21T07:31:38;7.00;99.90
19781;DHT22;10050;55.492;13.506;2024-02-21T07:34:03;7.10;99.90
19781;DHT22;10050;55.492;13.506;2024-02-21T07:36:30;7.10;99.90
19781;DHT22;10050;55.492;13.506;2024-02-21T07:38:55;7.10;99.90
19781;DHT22;10050;55.492;13.506;2024-02-21T07:41:21;7.10;99.90
19781;DHT22;10050;55.492;13.506;2024-02-21T07:43:47;7.10;99.90
19781;DHT22;10050;55.492;13.506;2024-02-21T07:46:14;7.10;99.90
19781;DHT22;10050;55.492;13.506;2024-02-21T07:48:39;7.10;99.90
19781;DHT22;10050;55.492;13.506;2024-02-21T07:51:05;7.40;99.90
19781;DHT22;10050;55.492;13.506;2024-02-21T07:53:31;8.10;99.90
19781;DHT22;10050;55.492;13.506;2024-02-21T07:55:56;9.20;99.90
19781;DHT22;10050;55.492;13.506;2024-02-21T07:58:22;10.80;99.90
19781;DHT22;10050;55.492;13.506;2024-02-21T08:00:47;11.10;99.90
19781;DHT22;10050;55.492;13.506;2024-02-21T08:03:14;11.30;99.90
19781;DHT22;10050;55.492;13.506;2024-02-21T08:05:41;12.50;99.90
19781;DHT22;10050;55.492;13.506;2024-02-21T08:08:06;13.10;99.90
19781;DHT22;10050;55.492;13.506;2024-02-21T08:10:33;12.80;99.90
19781;DHT22;10050;55.492;13.506;2024-02-21T08:12:59;12.50;99.90
19781;DHT22;10050;55.492;13.506;2024-02-21T08:15:25;11.40;99.90
19781;DHT22;10050;55.492;13.506;2024-02-21T08:17:55;10.80;99.90
19781;DHT22;10050;55.492;13.506;2024-02-21T08:20:24;10.50;99.90
19781;DHT22;10050;55.492;13.506;2024-02-21T08:22:50;10.00;99.90
19781;DHT22;10050;55.492;13.506;2024-02-21T08:25:15;9.50;99.90
19781;DHT22;10050;55.492;13.506;2024-02-21T08:27:41;9.00;99.90
19781;DHT22;10050;55.492;13.506;2024-02-21T08:30:07;8.70;99.90
19781;DHT22;10050;55.492;13.506;2024-02-21T08:32:33;8.30;99.90
19781;DHT22;10050;55.492;13.506;2024-02-21T08:35:01;8.10;99.90
19781;DHT22;10050;55.492;13.506;2024-02-21T08:37:27;7.90;99.90
19781;DHT22;10050;55.492;13.506;2024-02-21T08:39:53;7.70;99.90
19781;DHT22;10050;55.492;13.506;2024-02-21T08:42:18;7.60;99.90
19781;DHT22;10050;55.492;13.506;2024-02-21T08:44:44;7.60;99.90
19781;DHT22;10050;55.492;13.506;2024-02-21T08:47:11;7.50;99.90
19781;DHT22;10050;55.492;13.506;2024-02-21T08:49:36;7.50;99.90
19781;DHT22;10050;55.492;13.506;2024-02-21T08:52:03;7.40;99.90
19781;DHT22;10050;55.492;13.506;2024-02-21T08:54:28;7.30;99.90
19781;DHT22;10050;55.492;13.506;2024-02-21T08:56:54;7.30;99.90
19781;DHT22;10050;55.492;13.506;2024-02-21T08:59:20;7.40;99.90
19781;DHT22;10050;55.492;13.506;2024-02-21T09:01:46;7.50;99.90
19781;DHT22;10050;55.492;13.506;2024-02-21T09:04:12;7.60;99.90
19781;DHT22;10050;55.492;13.506;2024-02-21T09:06:37;7.50;99.90
19781;DHT22;10050;55.492;13.506;2024-02-21T09:09:08;7.50;99.90
19781;DHT22;10050;55.492;13.506;2024-02-21T09:11:34;7.60;99.90
19781;DHT22;10050;55.492;13.506;2024-02-21T09:13:59;7.50;99.90
19781;DHT22;10050;55.492;13.506;2024-02-21T09:16:25;7.40;99.90
19781;DHT22;10050;55.492;13.506;2024-02-21T09:18:51;7.40;99.90
19781;DHT22;10050;55.492;13.506;2024-02-21T09:21:18;7.40;99.90
19781;DHT22;10050;55.492;13.506;2024-02-21T09:23:44;7.40;99.90
19781;DHT22;10050;55.492;13.506;2024-02-21T09:26:10;7.30;99.90
19781;DHT22;10050;55.492;13.506;2024-02-21T09:28:41;7.30;99.90
19781;DHT22;10050;55.492;13.506;2024-02-21T09:31:07;7.30;99.90
19781;DHT22;10050;55.492;13.506;2024-02-21T09:33:33;7.30;99.90
19781;DHT22;10050;55.492;13.506;2024-02-21T09:35:58;7.30;99.90
19781;DHT22;10050;55.492;13.506;2024-02-21T09:38:24;7.40;99.90
19781;DHT22;10050;55.492;13.506;2024-02-21T09:41:00;7.40;99.90
19781;DHT22;10050;55.492;13.506;2024-02-21T09:43:29;7.30;99.90
19781;DHT22;10050;55.492;13.506;2024-02-21T09:45:55;7.30;99.90
19781;DHT22;10050;55.492;13.506;2024-02-21T09:48:42;7.30;99.90
19781;DHT22;10050;55.492;13.506;2024-02-21T09:51:12;7.30;99.90
19781;DHT22;10050;55.492;13.506;2024-02-21T09:53:40;7.20;99.90
19781;DHT22;10050;55.492;13.506;2024-02-21T09:56:10;7.10;99.90
19781;DHT22;10050;55.492;13.506;2024-02-21T09:58:36;7.10;99.90
19781;DHT22;10050;55.492;13.506;2024-02-21T10:01:03;7.00;99.90
19781;DHT22;10050;55.492;13.506;2024-02-21T10:03:32;7.00;99.90
19781;DHT22;10050;55.492;13.506;2024-02-21T10:05:59;7.00;99.90
19781;DHT22;10050;55.492;13.506;2024-02-21T10:08:26;7.00;99.90
19781;DHT22;10050;55.492;13.506;2024-02-21T10:10:52;7.00;99.90
19781;DHT22;10050;55.492;13.506;2024-02-21T10:13:29;7.00;99.90
19781;DHT22;10050;55.492;13.506;2024-02-21T10:18:28;7.00;99.90
19781;DHT22;10050;55.492;13.506;2024-02-21T10:21:03;6.90;99.90
19781;DHT22;10050;55.492;13.506;2024-02-21T10:23:29;6.90;99.90
19781;DHT22;10050;55.492;13.506;2024-02-21T10:26:05;6.90;99.90
19781;DHT22;10050;55.492;13.506;2024-02-21T10:28:31;6.90;99.90
19781;DHT22;10050;55.492;13.506;2024-02-21T10:30:57;6.90;99.90
19781;DHT22;10050;55.492;13.506;2024-02-21T10:33:22;6.80;99.90
19781;DHT22;10050;55.492;13.506;2024-02-21T10:35:49;6.80;99.90
19781;DHT22;10050;55.492;13.506;2024-02-21T10:38:15;6.80;99.90
19781;DHT22;10050;55.492;13.506;2024-02-21T10:40:41;6.90;99.90
19781;DHT22;10050;55.492;13.506;2024-02-21T10:43:26;6.90;99.90
19781;DHT22;10050;55.492;13.506;2024-02-21T10:45:53;6.90;99.90
19781;DHT22;10050;55.492;13.506;2024-02-21T10:48:25;6.90;99.90
19781;DHT22;10050;55.492;13.506;2024-02-21T10:50:57;7.00;99.90
19781;DHT22;10050;55.492;13.506;2024-02-21T10:58:52;7.40;99.90
19781;DHT22;10050;55.492;13.506;2024-02-21T11:01:18;7.50;99.90
19781;DHT22;10050;55.492;13.506;2024-02-21T11:03:45;7.70;99.90
19781;DHT22;10050;55.492;13.506;2024-02-21T11:06:13;7.90;99.90
19781;DHT22;10050;55.492;13.506;2024-02-21T11:08:40;7.90;99.90
19781;DHT22;10050;55.492;13.506;2024-02-21T11:11:06;7.80;99.90
19781;DHT22;10050;55.492;13.506;2024-02-21T11:13:35;7.70;99.90
19781;DHT22;10050;55.492;13.506;2024-02-21T11:16:11;7.60;99.90
19781;DHT22;10050;55.492;13.506;2024-02-21T11:18:38;7.50;99.90
19781;DHT22;10050;55.492;13.506;2024-02-21T11:21:04;7.40;99.90
19781;DHT22;10050;55.492;13.506;2024-02-21T11:23:32;7.40;99.90
19781;DHT22;10050;55.492;13.506;2024-02-21T11:26:07;7.40;99.90
19781;DHT22;10050;55.492;13.506;2024-02-21T11:28:33;7.40;99.90
19781;DHT22;10050;55.492;13.506;2024-02-21T11:31:13;7.40;99.90
19781;DHT22;10050;55.492;13.506;2024-02-21T11:33:48;7.40;99.90
19781;DHT22;10050;55.492;13.506;2024-02-21T11:36:26;7.40;99.90
19781;DHT22;10050;55.492;13.506;2024-02-21T11:38:53;7.50;99.90
19781;DHT22;10050;55.492;13.506;2024-02-21T11:41:19;7.60;99.90
19781;DHT22;10050;55.492;13.506;2024-02-21T11:43:48;7.60;99.90
19781;DHT22;10050;55.492;13.506;2024-02-21T11:46:14;7.70;99.90
19781;DHT22;10050;55.492;13.506;2024-02-21T11:48:41;7.80;99.90
19781;DHT22;10050;55.492;13.506;2024-02-21T11:51:06;7.80;99.90
19781;DHT22;10050;55.492;13.506;2024-02-21T11:53:32;7.90;99.90
19781;DHT22;10050;55.492;13.506;2024-02-21T11:55:58;7.90;99.90
19781;DHT22;10050;55.492;13.506;2024-02-21T11:58:24;7.90;99.90
19781;DHT22;10050;55.492;13.506;2024-02-21T12:00:52;7.90;99.90
19781;DHT22;10050;55.492;13.506;2024-02-21T12:03:18;7.80;99.90
19781;DHT22;10050;55.492;13.506;2024-02-21T12:05:43;7.80;99.90
19781;DHT22;10050;55.492;13.506;2024-02-21T12:08:09;7.70;99.90
19781;DHT22;10050;55.492;13.506;2024-02-21T12:10:36;7.70;99.90
19781;DHT22;10050;55.492;13.506;2024-02-21T12:13:11;7.60;99.90
19781;DHT22;10050;55.492;13.506;2024-02-21T12:15:38;7.60;99.90
19781;DHT22;10050;55.492;13.506;2024-02-21T12:18:04;7.60;99.90
19781;DHT22;10050;55.492;13.506;2024-02-21T12:20:30;7.70;99.90
19781;DHT22;10050;55.492;13.506;2024-02-21T12:23:00;7.70;99.90
19781;DHT22;10050;55.492;13.506;2024-02-21T12:25:26;7.70;99.90
19781;DHT22;10050;55.492;13.506;2024-02-21T12:27:52;7.70;99.90
19781;DHT22;10050;55.492;13.506;2024-02-21T12:30:18;7.80;99.90
19781;DHT22;10050;55.492;13.506;2024-02-21T12:32:45;7.90;99.90
19781;DHT22;10050;55.492;13.506;2024-02-21T12:35:11;8.20;99.90
19781;DHT22;10050;55.492;13.506;2024-02-21T12:37:36;8.40;99.90
19781;DHT22;10050;55.492;13.506;2024-02-21T12:40:08;8.60;99.90
19781;DHT22;10050;55.492;13.506;2024-02-21T12:42:34;8.70;99.90
19781;DHT22;10050;55.492;13.506;2024-02-21T12:45:01;8.50;99.90
19781;DHT22;10050;55.492;13.506;2024-02-21T12:47:28;8.30;99.90
19781;DHT22;10050;55.492;13.506;2024-02-21T12:49:54;8.20;99.90
19781;DHT22;10050;55.492;13.506;2024-02-21T12:52:19;8.30;99.90
19781;DHT22;10050;55.492;13.506;2024-02-21T12:54:45;8.30;99.90
19781;DHT22;10050;55.492;13.506;2024-02-21T12:57:11;8.20;99.90
19781;DHT22;10050;55.492;13.506;2024-02-21T12:59:36;8.10;99.90
19781;DHT22;10050;55.492;13.506;2024-02-21T13:02:02;8.10;99.90
19781;DHT22;10050;55.492;13.506;2024-02-21T13:04:27;8.10;99.90
19781;DHT22;10050;55.492;13.506;2024-02-21T13:06:53;8.10;99.90
19781;DHT22;10050;55.492;13.506;2024-02-21T13:09:20;8.10;99.90
19781;DHT22;10050;55.492;13.506;2024-02-21T13:11:46;8.20;99.90
19781;DHT22;10050;55.492;13.506;2024-02-21T13:14:12;8.30;99.90
19781;DHT22;10050;55.492;13.506;2024-02-21T13:16:38;8.30;99.90
19781;DHT22;10050;55.492;13.506;2024-02-21T13:19:07;8.40;99.90
19781;DHT22;10050;55.492;13.506;2024-02-21T13:21:36;8.30;99.90
19781;DHT22;10050;55.492;13.506;2024-02-21T13:24:02;8.30;99.90
19781;DHT22;10050;55.492;13.506;2024-02-21T13:26:27;8.40;99.90
19781;DHT22;10050;55.492;13.506;2024-02-21T13:28:53;8.50;99.90
19781;DHT22;10050;55.492;13.506;2024-02-21T13:31:19;8.50;99.90
19781;DHT22;10050;55.492;13.506;2024-02-21T13:33:45;8.70;99.90
19781;DHT22;10050;55.492;13.506;2024-02-21T13:36:11;8.70;99.90
19781;DHT22;10050;55.492;13.506;2024-02-21T13:38:36;8.60;99.90
19781;DHT22;10050;55.492;13.506;2024-02-21T13:41:05;8.70;99.90
19781;DHT22;10050;55.492;13.506;2024-02-21T13:43:30;8.90;99.90
19781;DHT22;10050;55.492;13.506;2024-02-21T13:45:58;9.00;99.90
19781;DHT22;10050;55.492;13.506;2024-02-21T13:48:24;9.00;99.90
19781;DHT22;10050;55.492;13.506;2024-02-21T13:50:50;9.00;99.90
19781;DHT22;10050;55.492;13.506;2024-02-21T13:53:16;8.90;99.90
19781;DHT22;10050;55.492;13.506;2024-02-21T13:55:47;8.90;99.90
19781;DHT22;10050;55.492;13.506;2024-02-21T13:58:12;9.10;99.90
19781;DHT22;10050;55.492;13.506;2024-02-21T14:00:38;9.10;99.90
19781;DHT22;10050;55.492;13.506;2024-02-21T14:03:04;9.20;99.90
19781;DHT22;10050;55.492;13.506;2024-02-21T14:05:29;9.10;99.90
19781;DHT22;10050;55.492;13.506;2024-02-21T14:07:55;9.20;99.90
19781;DHT22;10050;55.492;13.506;2024-02-21T14:10:22;9.20;99.90
19781;DHT22;10050;55.492;13.506;2024-02-21T14:12:47;9.30;99.90
19781;DHT22;10050;55.492;13.506;2024-02-21T14:15:14;9.30;99.90
19781;DHT22;10050;55.492;13.506;2024-02-21T14:17:39;9.30;99.90
19781;DHT22;10050;55.492;13.506;2024-02-21T14:20:07;9.40;99.90
19781;DHT22;10050;55.492;13.506;2024-02-21T14:22:32;9.40;99.90
19781;DHT22;10050;55.492;13.506;2024-02-21T14:24:59;9.50;99.90
19781;DHT22;10050;55.492;13.506;2024-02-21T14:27:25;9.50;99.90
19781;DHT22;10050;55.492;13.506;2024-02-21T14:29:51;9.50;99.90
19781;DHT22;10050;55.492;13.506;2024-02-21T14:32:17;9.20;99.90
19781;DHT22;10050;55.492;13.506;2024-02-21T14:34:42;9.20;99.90
19781;DHT22;10050;55.492;13.506;2024-02-21T14:37:08;9.10;99.90
19781;DHT22;10050;55.492;13.506;2024-02-21T14:39:33;8.90;99.90
19781;DHT22;10050;55.492;13.506;2024-02-21T14:42:01;8.90;99.90
19781;DHT22;10050;55.492;13.506;2024-02-21T14:44:27;9.00;99.90
19781;DHT22;10050;55.492;13.506;2024-02-21T14:46:53;9.00;99.90
19781;DHT22;10050;55.492;13.506;2024-02-21T14:49:18;8.90;99.90
19781;DHT22;10050;55.492;13.506;2024-02-21T14:51:44;9.00;99.90
19781;DHT22;10050;55.492;13.506;2024-02-21T14:54:10;9.10;99.90
19781;DHT22;10050;55.492;13.506;2024-02-21T14:56:36;9.20;99.90
19781;DHT22;10050;55.492;13.506;2024-02-21T14:59:01;9.20;99.90
19781;DHT22;10050;55.492;13.506;2024-02-21T15:01:27;9.20;99.90
19781;DHT22;10050;55.492;13.506;2024-02-21T15:03:53;9.10;99.90
19781;DHT22;10050;55.492;13.506;2024-02-21T15:06:18;9.00;99.90
19781;DHT22;10050;55.492;13.506;2024-02-21T15:08:44;8.90;99.90
19781;DHT22;10050;55.492;13.506;2024-02-21T15:11:10;8.80;99.90
19781;DHT22;10050;55.492;13.506;2024-02-21T15:13:35;8.80;99.90
19781;DHT22;10050;55.492;13.506;2024-02-21T15:16:02;8.70;99.90
19781;DHT22;10050;55.492;13.506;2024-02-21T15:18:30;8.70;99.90
19781;DHT22;10050;55.492;13.506;2024-02-21T15:20:58;8.60;99.90
19781;DHT22;10050;55.492;13.506;2024-02-21T15:23:24;8.50;99.90
19781;DHT22;10050;55.492;13.506;2024-02-21T15:25:50;8.50;99.90
19781;DHT22;10050;55.492;13.506;2024-02-21T15:28:16;8.40;99.90
19781;DHT22;10050;55.492;13.506;2024-02-21T15:30:41;8.50;99.90
19781;DHT22;10050;55.492;13.506;2024-02-21T15:33:07;8.40;99.90